»·PEaware :: SWA1708 KPHX-KABQ

SWA1708 :: KPHX-KABQ

FLIGHT INFORMATION

Flight Status: Arrived
Operator:
Southwest Airlines
More flights by this operator :: More flights under this callsign
Pilot: Drew L. (13237)
Aircraft: BOEING 737-800
(B738)
More flights by this aircraft type
Origin: KPHX Phoenix Sky Harbor Intl
United States
Destination: KABQ Albuquerque Intl Sunport
United States
More flights between these airports :: More routes between these airports
Route: +LALUZ5 SJN CABNO KRKEE3
File this flight plan on PilotEdge
Remarks: PBN / A1B1C1D1S1S2 DOF / 180414 REG / N806SB OPR / SWA PER / C RMK / TCAS SIMBRIEF
Altitude:
(Current/Filed)
29,000ft
Speed:
(Current/Filed)
456kts
Departed: 13-Apr-18 05:32 PM
Arrived: 13-Apr-18 06:32 PM
Distance/Time
Traveled:
285nm/0:59
Distance/Time
To Go:
Arrived

Flight Plot

Page will automatically refresh every two minutes.

Flight plan parsing failed; only flown route is shown


Map Options




Map Legend


Flown Route
Filed Route
Departure Airport
Arrival Airport
Navaid (VOR, NDB)
Fix

Horizontal Profiles

Position Reports

Time Latitude Longitude Heading Altitude Ground
Speed
13-Apr-18 17:13 33.433663 -111.996206 314 1142ft 0kts
13-Apr-18 17:14 33.433663 -111.996206 314 1142ft 0kts
13-Apr-18 17:15 33.433663 -111.996206 314 1142ft 0kts
13-Apr-18 17:16 33.433663 -111.996206 314 1142ft 0kts
13-Apr-18 17:17 33.433663 -111.996206 314 1142ft 0kts
13-Apr-18 17:18 33.433663 -111.996206 314 1142ft 0kts
13-Apr-18 17:19 33.433663 -111.996206 314 1142ft 0kts
13-Apr-18 17:20 33.433663 -111.996206 314 1142ft 0kts
13-Apr-18 17:21 33.433663 -111.996206 314 1142ft 0kts
13-Apr-18 17:22 33.433663 -111.996206 314 1142ft 0kts
13-Apr-18 17:23 33.433638 -111.996175 313 1142ft 2kts
13-Apr-18 17:24 33.433345 -111.995653 259 1142ft 2kts
13-Apr-18 17:25 33.433650 -111.995390 179 1142ft 0kts
13-Apr-18 17:26 33.433649 -111.995390 179 1142ft 0kts
13-Apr-18 17:27 33.433649 -111.995390 179 1142ft 0kts
13-Apr-18 17:28 33.433649 -111.995390 179 1142ft 0kts
13-Apr-18 17:29 33.432921 -111.995428 193 1142ft 13kts
13-Apr-18 17:30 33.432003 -111.993544 131 1142ft 9kts
13-Apr-18 17:31 33.431074 -112.016607 273 1186ft 164kts
13-Apr-18 17:32 33.437221 -112.075325 309 3016ft 208kts
13-Apr-18 17:33 33.484216 -112.127212 319 5466ft 255kts
13-Apr-18 17:34 33.541558 -112.175918 352 8736ft 262kts
13-Apr-18 17:35 33.607566 -112.137083 34 11223ft 299kts
13-Apr-18 17:36 33.673605 -112.073561 33 14237ft 311kts
13-Apr-18 17:37 33.738198 -112.002895 54 17245ft 336kts
13-Apr-18 17:38 33.742772 -111.883637 88 19735ft 382kts
13-Apr-18 17:39 33.730684 -111.754319 86 21955ft 397kts
13-Apr-18 17:40 33.718875 -111.620035 86 23956ft 412kts
13-Apr-18 17:41 33.706770 -111.481514 85 25761ft 426kts
13-Apr-18 17:42 33.694155 -111.337987 85 27403ft 439kts
13-Apr-18 17:43 33.711498 -111.201578 55 28869ft 407kts
13-Apr-18 17:44 33.757642 -111.072725 55 29163ft 440kts
13-Apr-18 17:45 33.807315 -110.933478 56 29157ft 462kts
13-Apr-18 17:46 33.857721 -110.790944 56 29172ft 465kts
13-Apr-18 17:47 33.907715 -110.648828 56 29198ft 462kts
13-Apr-18 17:48 33.957881 -110.505748 56 29202ft 464kts
13-Apr-18 17:49 34.007936 -110.362314 56 29202ft 464kts
13-Apr-18 17:50 34.057578 -110.219433 56 29200ft 466kts
13-Apr-18 17:51 34.106888 -110.076839 56 29207ft 465kts
13-Apr-18 17:52 34.156298 -109.933328 56 29219ft 464kts
13-Apr-18 17:53 34.205440 -109.789946 56 29211ft 463kts
13-Apr-18 17:54 34.254584 -109.645960 56 29210ft 464kts
13-Apr-18 17:55 34.303445 -109.502131 56 29178ft 464kts
13-Apr-18 17:56 34.352371 -109.357501 56 29159ft 466kts
13-Apr-18 17:57 34.400231 -109.215275 57 29137ft 465kts
13-Apr-18 17:58 34.437110 -109.061820 73 29137ft 493kts
13-Apr-18 17:59 34.456602 -108.897974 75 29143ft 493kts
13-Apr-18 18:00 34.476582 -108.733897 75 29155ft 492kts
13-Apr-18 18:01 34.493298 -108.596687 75 29153ft 492kts
13-Apr-18 18:02 34.516218 -108.434118 71 29145ft 489kts
13-Apr-18 18:03 34.542158 -108.282765 72 29128ft 489kts
13-Apr-18 18:04 34.569628 -108.121399 72 29125ft 489kts
13-Apr-18 18:05 34.597012 -107.959231 72 28361ft 493kts
13-Apr-18 18:06 34.625237 -107.798129 64 26944ft 481kts
13-Apr-18 18:07 34.695628 -107.632869 55 24110ft 482kts
13-Apr-18 18:08 34.753731 -107.498370 55 20229ft 409kts
13-Apr-18 18:09 34.796190 -107.399757 55 17062ft 389kts
13-Apr-18 18:10 34.844710 -107.286610 56 13829ft 374kts
13-Apr-18 18:11 34.891386 -107.174463 56 11936ft 362kts
13-Apr-18 18:12 34.937019 -107.066817 56 10513ft 356kts
13-Apr-18 18:13 34.982062 -106.961403 55 10055ft 349kts
13-Apr-18 18:14 35.028041 -106.863508 55 10021ft 293kts
13-Apr-18 18:15 35.063156 -106.788532 55 10029ft 227kts
13-Apr-18 18:16 35.093820 -106.721644 56 10056ft 229kts
13-Apr-18 18:17 35.124415 -106.653554 65 10049ft 231kts
13-Apr-18 18:18 35.113834 -106.578135 134 9080ft 252kts
13-Apr-18 18:19 35.059858 -106.583955 227 7009ft 201kts
13-Apr-18 18:20 35.022831 -106.628746 223 7144ft 194kts
13-Apr-18 18:21 34.976782 -106.669579 227 8071ft 229kts
13-Apr-18 18:22 34.976658 -106.733525 310 8092ft 199kts
13-Apr-18 18:23 35.014442 -106.782754 339 8044ft 198kts
13-Apr-18 18:24 35.066968 -106.772779 47 8123ft 219kts
13-Apr-18 18:25 35.099333 -106.708004 53 8078ft 216kts
13-Apr-18 18:26 35.131185 -106.646787 31 7451ft 206kts
13-Apr-18 18:27 35.133130 -106.585111 134 6882ft 227kts
13-Apr-18 18:28 35.080985 -106.564195 200 6390ft 180kts
13-Apr-18 18:29 35.047218 -106.600351 230 5569ft 166kts
13-Apr-18 18:30 35.025693 -106.626438 228 5362ft 50kts
13-Apr-18 18:31 35.024252 -106.630320 43 5362ft 21kts
13-Apr-18 18:32 35.030454 -106.622819 44 5362ft 33kts
13-Apr-18 18:33 35.037151 -106.614735 43 5362ft 28kts
13-Apr-18 18:34 35.042590 -106.613790 359 5362ft 18kts
13-Apr-18 18:35 35.046838 -106.614446 341 5362ft 4kts
13-Apr-18 18:36 35.046928 -106.614483 340 5362ft 0kts

Navigation Log

Ident Type
Flight plan parsing failed, navigation log unavailable